sensor_id;sensor_type;location;lat;lon;timestamp;P1;durP1;ratioP1;P2;durP2;ratioP2
9888;SDS011;4983;42.112;24.738;2022-10-16T00:01:38;10.10;;;7.30;;
9888;SDS011;4983;42.112;24.738;2022-10-16T00:04:05;10.93;;;7.57;;
9888;SDS011;4983;42.112;24.738;2022-10-16T00:06:32;11.67;;;8.23;;
9888;SDS011;4983;42.112;24.738;2022-10-16T00:08:59;14.80;;;8.80;;
9888;SDS011;4983;42.112;24.738;2022-10-16T00:11:28;11.53;;;8.07;;
9888;SDS011;4983;42.112;24.738;2022-10-16T00:13:56;13.53;;;8.40;;
9888;SDS011;4983;42.112;24.738;2022-10-16T00:16:24;9.00;;;7.57;;
9888;SDS011;4983;42.112;24.738;2022-10-16T00:18:51;10.93;;;7.50;;
9888;SDS011;4983;42.112;24.738;2022-10-16T00:21:19;8.63;;;7.73;;
9888;SDS011;4983;42.112;24.738;2022-10-16T00:23:46;11.33;;;8.43;;
9888;SDS011;4983;42.112;24.738;2022-10-16T00:26:13;11.40;;;7.53;;
9888;SDS011;4983;42.112;24.738;2022-10-16T00:28:44;10.20;;;8.23;;
9888;SDS011;4983;42.112;24.738;2022-10-16T00:31:11;9.27;;;7.30;;
9888;SDS011;4983;42.112;24.738;2022-10-16T00:33:39;9.13;;;8.23;;
9888;SDS011;4983;42.112;24.738;2022-10-16T00:36:07;10.47;;;8.10;;
9888;SDS011;4983;42.112;24.738;2022-10-16T00:38:34;9.53;;;8.03;;
9888;SDS011;4983;42.112;24.738;2022-10-16T00:41:02;11.73;;;8.20;;
9888;SDS011;4983;42.112;24.738;2022-10-16T00:43:34;10.97;;;8.07;;
9888;SDS011;4983;42.112;24.738;2022-10-16T00:46:03;11.77;;;8.53;;
9888;SDS011;4983;42.112;24.738;2022-10-16T00:48:30;14.37;;;8.07;;
9888;SDS011;4983;42.112;24.738;2022-10-16T00:50:57;13.93;;;8.57;;
9888;SDS011;4983;42.112;24.738;2022-10-16T00:53:24;12.07;;;8.40;;
9888;SDS011;4983;42.112;24.738;2022-10-16T00:55:52;9.80;;;8.50;;
9888;SDS011;4983;42.112;24.738;2022-10-16T00:58:19;9.60;;;8.60;;
9888;SDS011;4983;42.112;24.738;2022-10-16T01:00:46;10.07;;;8.53;;
9888;SDS011;4983;42.112;24.738;2022-10-16T01:03:25;9.40;;;8.07;;
9888;SDS011;4983;42.112;24.738;2022-10-16T01:05:55;14.23;;;9.30;;
9888;SDS011;4983;42.112;24.738;2022-10-16T01:08:25;11.93;;;8.23;;
9888;SDS011;4983;42.112;24.738;2022-10-16T01:10:55;31.27;;;11.53;;
9888;SDS011;4983;42.112;24.738;2022-10-16T01:13:24;12.90;;;8.97;;
9888;SDS011;4983;42.112;24.738;2022-10-16T01:15:53;14.87;;;9.60;;
9888;SDS011;4983;42.112;24.738;2022-10-16T01:18:25;11.07;;;9.23;;
9888;SDS011;4983;42.112;24.738;2022-10-16T01:20:56;11.17;;;9.67;;
9888;SDS011;4983;42.112;24.738;2022-10-16T01:23:31;10.40;;;9.30;;
9888;SDS011;4983;42.112;24.738;2022-10-16T01:26:20;12.67;;;10.00;;
9888;SDS011;4983;42.112;24.738;2022-10-16T01:28:53;12.27;;;9.50;;
9888;SDS011;4983;42.112;24.738;2022-10-16T01:31:24;12.37;;;10.03;;
9888;SDS011;4983;42.112;24.738;2022-10-16T01:33:54;14.47;;;9.67;;
9888;SDS011;4983;42.112;24.738;2022-10-16T01:36:23;12.17;;;9.77;;
9888;SDS011;4983;42.112;24.738;2022-10-16T01:38:52;11.27;;;9.60;;
9888;SDS011;4983;42.112;24.738;2022-10-16T01:41:21;10.77;;;9.23;;
9888;SDS011;4983;42.112;24.738;2022-10-16T01:43:51;13.03;;;9.43;;
9888;SDS011;4983;42.112;24.738;2022-10-16T01:46:21;13.00;;;9.87;;
9888;SDS011;4983;42.112;24.738;2022-10-16T01:48:48;15.50;;;10.33;;
9888;SDS011;4983;42.112;24.738;2022-10-16T01:51:16;11.63;;;9.37;;
9888;SDS011;4983;42.112;24.738;2022-10-16T01:53:44;11.33;;;9.77;;
9888;SDS011;4983;42.112;24.738;2022-10-16T01:56:12;12.63;;;9.97;;
9888;SDS011;4983;42.112;24.738;2022-10-16T01:58:40;12.80;;;9.83;;
9888;SDS011;4983;42.112;24.738;2022-10-16T02:01:08;15.33;;;9.97;;
9888;SDS011;4983;42.112;24.738;2022-10-16T02:03:37;14.57;;;10.27;;
9888;SDS011;4983;42.112;24.738;2022-10-16T02:06:06;20.80;;;10.70;;
9888;SDS011;4983;42.112;24.738;2022-10-16T02:08:33;10.97;;;9.73;;
9888;SDS011;4983;42.112;24.738;2022-10-16T02:11:00;11.57;;;9.43;;
9888;SDS011;4983;42.112;24.738;2022-10-16T02:13:29;11.67;;;9.70;;
9888;SDS011;4983;42.112;24.738;2022-10-16T02:15:57;10.47;;;9.17;;
9888;SDS011;4983;42.112;24.738;2022-10-16T02:18:25;13.87;;;9.23;;
9888;SDS011;4983;42.112;24.738;2022-10-16T02:20:58;17.10;;;14.37;;
9888;SDS011;4983;42.112;24.738;2022-10-16T02:23:28;17.40;;;14.83;;
9888;SDS011;4983;42.112;24.738;2022-10-16T02:25:56;13.33;;;10.27;;
9888;SDS011;4983;42.112;24.738;2022-10-16T02:28:26;11.87;;;10.03;;
9888;SDS011;4983;42.112;24.738;2022-10-16T02:30:56;15.53;;;9.97;;
9888;SDS011;4983;42.112;24.738;2022-10-16T02:33:24;13.97;;;10.10;;
9888;SDS011;4983;42.112;24.738;2022-10-16T02:35:52;13.50;;;10.50;;
9888;SDS011;4983;42.112;24.738;2022-10-16T02:38:21;10.53;;;9.37;;
9888;SDS011;4983;42.112;24.738;2022-10-16T02:40:48;11.67;;;9.80;;
9888;SDS011;4983;42.112;24.738;2022-10-16T02:43:15;10.70;;;9.57;;
9888;SDS011;4983;42.112;24.738;2022-10-16T02:45:42;13.10;;;10.07;;
9888;SDS011;4983;42.112;24.738;2022-10-16T02:48:09;12.33;;;9.73;;
9888;SDS011;4983;42.112;24.738;2022-10-16T02:50:35;15.40;;;9.53;;
9888;SDS011;4983;42.112;24.738;2022-10-16T02:53:02;10.53;;;9.27;;
9888;SDS011;4983;42.112;24.738;2022-10-16T02:55:30;12.83;;;10.10;;
9888;SDS011;4983;42.112;24.738;2022-10-16T02:57:57;13.70;;;10.17;;
9888;SDS011;4983;42.112;24.738;2022-10-16T03:00:25;17.47;;;9.47;;
9888;SDS011;4983;42.112;24.738;2022-10-16T03:02:51;17.43;;;10.73;;
9888;SDS011;4983;42.112;24.738;2022-10-16T03:05:18;16.83;;;10.03;;
9888;SDS011;4983;42.112;24.738;2022-10-16T03:07:45;11.20;;;9.77;;
9888;SDS011;4983;42.112;24.738;2022-10-16T03:10:12;12.33;;;10.00;;
9888;SDS011;4983;42.112;24.738;2022-10-16T03:12:40;12.60;;;10.07;;
9888;SDS011;4983;42.112;24.738;2022-10-16T03:15:07;13.33;;;10.10;;
9888;SDS011;4983;42.112;24.738;2022-10-16T03:17:34;12.63;;;9.83;;
9888;SDS011;4983;42.112;24.738;2022-10-16T03:20:01;10.93;;;9.83;;
9888;SDS011;4983;42.112;24.738;2022-10-16T03:22:28;23.13;;;11.97;;
9888;SDS011;4983;42.112;24.738;2022-10-16T03:24:55;15.07;;;10.67;;
9888;SDS011;4983;42.112;24.738;2022-10-16T03:27:22;11.20;;;10.10;;
9888;SDS011;4983;42.112;24.738;2022-10-16T03:29:50;13.77;;;10.83;;
9888;SDS011;4983;42.112;24.738;2022-10-16T03:32:17;13.97;;;11.27;;
9888;SDS011;4983;42.112;24.738;2022-10-16T03:34:45;12.40;;;10.73;;
9888;SDS011;4983;42.112;24.738;2022-10-16T03:37:12;13.07;;;10.83;;
9888;SDS011;4983;42.112;24.738;2022-10-16T03:39:39;14.33;;;11.10;;
9888;SDS011;4983;42.112;24.738;2022-10-16T03:42:05;23.23;;;12.30;;
9888;SDS011;4983;42.112;24.738;2022-10-16T03:44:32;18.50;;;11.93;;
9888;SDS011;4983;42.112;24.738;2022-10-16T03:47:00;11.73;;;10.47;;
9888;SDS011;4983;42.112;24.738;2022-10-16T03:49:27;22.97;;;12.20;;
9888;SDS011;4983;42.112;24.738;2022-10-16T03:51:54;21.17;;;12.10;;
9888;SDS011;4983;42.112;24.738;2022-10-16T03:54:21;16.67;;;10.43;;
9888;SDS011;4983;42.112;24.738;2022-10-16T03:56:48;13.43;;;10.80;;
9888;SDS011;4983;42.112;24.738;2022-10-16T03:59:16;15.20;;;10.27;;
9888;SDS011;4983;42.112;24.738;2022-10-16T04:01:43;39.23;;;12.60;;
9888;SDS011;4983;42.112;24.738;2022-10-16T04:04:11;10.87;;;9.70;;
9888;SDS011;4983;42.112;24.738;2022-10-16T04:06:38;14.37;;;11.10;;
9888;SDS011;4983;42.112;24.738;2022-10-16T04:09:04;13.93;;;10.80;;
9888;SDS011;4983;42.112;24.738;2022-10-16T04:11:31;14.67;;;10.60;;
9888;SDS011;4983;42.112;24.738;2022-10-16T04:13:58;13.07;;;10.83;;
9888;SDS011;4983;42.112;24.738;2022-10-16T04:16:25;11.37;;;10.27;;
9888;SDS011;4983;42.112;24.738;2022-10-16T04:18:52;15.77;;;11.00;;
9888;SDS011;4983;42.112;24.738;2022-10-16T04:21:20;13.77;;;10.60;;
9888;SDS011;4983;42.112;24.738;2022-10-16T04:23:47;16.00;;;10.50;;
9888;SDS011;4983;42.112;24.738;2022-10-16T04:26:14;12.53;;;10.70;;
9888;SDS011;4983;42.112;24.738;2022-10-16T04:28:41;14.07;;;10.97;;
9888;SDS011;4983;42.112;24.738;2022-10-16T04:31:08;11.53;;;10.37;;
9888;SDS011;4983;42.112;24.738;2022-10-16T04:33:34;13.03;;;9.80;;
9888;SDS011;4983;42.112;24.738;2022-10-16T04:36:02;34.87;;;13.43;;
9888;SDS011;4983;42.112;24.738;2022-10-16T04:38:30;16.77;;;11.40;;
9888;SDS011;4983;42.112;24.738;2022-10-16T04:40:57;28.70;;;13.07;;
9888;SDS011;4983;42.112;24.738;2022-10-16T04:43:25;24.20;;;12.20;;
9888;SDS011;4983;42.112;24.738;2022-10-16T04:45:52;12.60;;;10.43;;
9888;SDS011;4983;42.112;24.738;2022-10-16T04:48:20;16.57;;;10.93;;
9888;SDS011;4983;42.112;24.738;2022-10-16T04:50:47;20.00;;;11.10;;
9888;SDS011;4983;42.112;24.738;2022-10-16T04:53:13;14.63;;;10.83;;
9888;SDS011;4983;42.112;24.738;2022-10-16T04:55:42;16.67;;;9.80;;
9888;SDS011;4983;42.112;24.738;2022-10-16T04:58:08;13.03;;;10.67;;
9888;SDS011;4983;42.112;24.738;2022-10-16T05:00:35;83.47;;;54.40;;
9888;SDS011;4983;42.112;24.738;2022-10-16T05:03:03;29.77;;;15.30;;
9888;SDS011;4983;42.112;24.738;2022-10-16T05:05:33;20.17;;;11.03;;
9888;SDS011;4983;42.112;24.738;2022-10-16T05:08:00;11.77;;;10.53;;
9888;SDS011;4983;42.112;24.738;2022-10-16T05:10:27;19.57;;;10.60;;
9888;SDS011;4983;42.112;24.738;2022-10-16T05:12:55;11.00;;;9.87;;
9888;SDS011;4983;42.112;24.738;2022-10-16T05:15:22;38.40;;;12.63;;
9888;SDS011;4983;42.112;24.738;2022-10-16T05:17:51;21.43;;;12.73;;
9888;SDS011;4983;42.112;24.738;2022-10-16T05:20:19;19.83;;;11.70;;
9888;SDS011;4983;42.112;24.738;2022-10-16T05:22:46;15.17;;;11.50;;
9888;SDS011;4983;42.112;24.738;2022-10-16T05:25:12;34.63;;;13.43;;
9888;SDS011;4983;42.112;24.738;2022-10-16T05:27:39;12.93;;;10.77;;
9888;SDS011;4983;42.112;24.738;2022-10-16T05:30:08;28.67;;;13.40;;
9888;SDS011;4983;42.112;24.738;2022-10-16T05:32:35;19.57;;;12.73;;
9888;SDS011;4983;42.112;24.738;2022-10-16T05:35:01;47.10;;;14.10;;
9888;SDS011;4983;42.112;24.738;2022-10-16T05:37:29;16.90;;;12.53;;
9888;SDS011;4983;42.112;24.738;2022-10-16T05:39:56;23.27;;;13.07;;
9888;SDS011;4983;42.112;24.738;2022-10-16T05:42:23;15.73;;;13.03;;
9888;SDS011;4983;42.112;24.738;2022-10-16T05:44:49;21.07;;;12.73;;
9888;SDS011;4983;42.112;24.738;2022-10-16T05:47:18;13.83;;;12.23;;
9888;SDS011;4983;42.112;24.738;2022-10-16T05:49:46;16.00;;;12.23;;
9888;SDS011;4983;42.112;24.738;2022-10-16T05:52:12;14.67;;;12.10;;
9888;SDS011;4983;42.112;24.738;2022-10-16T05:54:39;40.60;;;20.40;;
9888;SDS011;4983;42.112;24.738;2022-10-16T05:57:06;16.13;;;12.23;;
9888;SDS011;4983;42.112;24.738;2022-10-16T05:59:33;18.23;;;11.57;;
9888;SDS011;4983;42.112;24.738;2022-10-16T06:02:00;31.57;;;12.87;;
9888;SDS011;4983;42.112;24.738;2022-10-16T06:04:28;21.67;;;13.40;;
9888;SDS011;4983;42.112;24.738;2022-10-16T06:06:57;15.47;;;10.77;;
9888;SDS011;4983;42.112;24.738;2022-10-16T06:09:25;12.10;;;10.80;;
9888;SDS011;4983;42.112;24.738;2022-10-16T06:11:52;14.87;;;9.87;;
9888;SDS011;4983;42.112;24.738;2022-10-16T06:14:19;11.57;;;10.40;;
9888;SDS011;4983;42.112;24.738;2022-10-16T06:16:45;11.17;;;9.63;;
9888;SDS011;4983;42.112;24.738;2022-10-16T06:19:12;11.67;;;9.53;;
9888;SDS011;4983;42.112;24.738;2022-10-16T06:21:40;10.53;;;9.43;;
9888;SDS011;4983;42.112;24.738;2022-10-16T06:24:07;13.53;;;10.37;;
9888;SDS011;4983;42.112;24.738;2022-10-16T06:26:34;32.27;;;14.60;;
9888;SDS011;4983;42.112;24.738;2022-10-16T06:29:01;16.37;;;12.80;;
9888;SDS011;4983;42.112;24.738;2022-10-16T06:31:28;16.83;;;11.87;;
9888;SDS011;4983;42.112;24.738;2022-10-16T06:33:56;13.77;;;10.23;;
9888;SDS011;4983;42.112;24.738;2022-10-16T06:36:23;11.90;;;9.13;;
9888;SDS011;4983;42.112;24.738;2022-10-16T06:38:52;12.87;;;9.97;;
9888;SDS011;4983;42.112;24.738;2022-10-16T06:41:19;11.30;;;9.73;;
9888;SDS011;4983;42.112;24.738;2022-10-16T06:43:46;15.13;;;10.30;;
9888;SDS011;4983;42.112;24.738;2022-10-16T06:46:14;12.40;;;11.10;;
9888;SDS011;4983;42.112;24.738;2022-10-16T06:48:41;10.13;;;8.33;;
9888;SDS011;4983;42.112;24.738;2022-10-16T06:51:09;11.53;;;8.60;;
9888;SDS011;4983;42.112;24.738;2022-10-16T06:53:36;9.30;;;8.40;;
9888;SDS011;4983;42.112;24.738;2022-10-16T06:56:08;10.23;;;8.40;;
9888;SDS011;4983;42.112;24.738;2022-10-16T06:58:35;21.33;;;9.47;;
9888;SDS011;4983;42.112;24.738;2022-10-16T07:01:02;12.70;;;8.83;;
9888;SDS011;4983;42.112;24.738;2022-10-16T07:03:29;12.03;;;8.10;;
9888;SDS011;4983;42.112;24.738;2022-10-16T07:05:55;9.20;;;7.70;;
9888;SDS011;4983;42.112;24.738;2022-10-16T07:08:22;10.10;;;9.00;;
9888;SDS011;4983;42.112;24.738;2022-10-16T07:10:57;9.80;;;8.47;;
9888;SDS011;4983;42.112;24.738;2022-10-16T07:13:25;15.50;;;8.77;;
9888;SDS011;4983;42.112;24.738;2022-10-16T07:15:53;11.00;;;8.70;;
9888;SDS011;4983;42.112;24.738;2022-10-16T07:18:20;10.70;;;8.27;;
9888;SDS011;4983;42.112;24.738;2022-10-16T07:20:51;14.60;;;8.33;;
9888;SDS011;4983;42.112;24.738;2022-10-16T07:23:18;11.17;;;8.37;;
9888;SDS011;4983;42.112;24.738;2022-10-16T07:25:45;10.77;;;7.67;;
9888;SDS011;4983;42.112;24.738;2022-10-16T07:28:11;9.80;;;7.40;;
9888;SDS011;4983;42.112;24.738;2022-10-16T07:30:41;9.80;;;7.43;;
9888;SDS011;4983;42.112;24.738;2022-10-16T07:33:08;10.30;;;7.67;;
9888;SDS011;4983;42.112;24.738;2022-10-16T07:35:35;10.90;;;7.67;;
9888;SDS011;4983;42.112;24.738;2022-10-16T07:38:02;11.67;;;7.53;;
9888;SDS011;4983;42.112;24.738;2022-10-16T07:40:29;12.20;;;8.63;;
9888;SDS011;4983;42.112;24.738;2022-10-16T07:42:56;9.07;;;7.97;;
9888;SDS011;4983;42.112;24.738;2022-10-16T07:45:23;7.87;;;7.13;;
9888;SDS011;4983;42.112;24.738;2022-10-16T07:47:51;44.63;;;10.77;;
9888;SDS011;4983;42.112;24.738;2022-10-16T07:50:18;11.67;;;7.97;;
9888;SDS011;4983;42.112;24.738;2022-10-16T07:52:45;11.33;;;7.73;;
9888;SDS011;4983;42.112;24.738;2022-10-16T07:55:12;9.50;;;7.50;;
9888;SDS011;4983;42.112;24.738;2022-10-16T07:57:39;10.43;;;7.20;;
9888;SDS011;4983;42.112;24.738;2022-10-16T08:00:06;11.67;;;8.17;;
9888;SDS011;4983;42.112;24.738;2022-10-16T08:02:38;9.83;;;7.17;;
9888;SDS011;4983;42.112;24.738;2022-10-16T08:05:07;9.33;;;7.17;;
9888;SDS011;4983;42.112;24.738;2022-10-16T08:07:34;15.67;;;7.90;;
9888;SDS011;4983;42.112;24.738;2022-10-16T08:10:01;10.80;;;7.20;;
9888;SDS011;4983;42.112;24.738;2022-10-16T08:12:28;10.07;;;7.37;;
9888;SDS011;4983;42.112;24.738;2022-10-16T08:14:55;12.83;;;7.03;;
9888;SDS011;4983;42.112;24.738;2022-10-16T08:17:21;12.37;;;7.60;;
9888;SDS011;4983;42.112;24.738;2022-10-16T08:19:48;15.50;;;7.60;;
9888;SDS011;4983;42.112;24.738;2022-10-16T08:22:16;9.33;;;7.07;;
9888;SDS011;4983;42.112;24.738;2022-10-16T08:24:43;10.23;;;7.37;;
9888;SDS011;4983;42.112;24.738;2022-10-16T08:27:10;10.40;;;6.87;;
9888;SDS011;4983;42.112;24.738;2022-10-16T08:29:37;9.10;;;7.03;;
9888;SDS011;4983;42.112;24.738;2022-10-16T08:32:03;7.77;;;6.77;;
9888;SDS011;4983;42.112;24.738;2022-10-16T08:34:30;11.03;;;6.60;;
9888;SDS011;4983;42.112;24.738;2022-10-16T08:36:57;8.43;;;6.80;;
9888;SDS011;4983;42.112;24.738;2022-10-16T08:39:26;9.60;;;6.83;;
9888;SDS011;4983;42.112;24.738;2022-10-16T08:42:03;8.00;;;6.37;;
9888;SDS011;4983;42.112;24.738;2022-10-16T08:47:17;8.90;;;6.30;;
9888;SDS011;4983;42.112;24.738;2022-10-16T08:49:54;8.27;;;6.43;;
9888;SDS011;4983;42.112;24.738;2022-10-16T08:52:21;8.57;;;6.30;;
9888;SDS011;4983;42.112;24.738;2022-10-16T08:54:55;9.20;;;5.97;;
9888;SDS011;4983;42.112;24.738;2022-10-16T08:57:23;9.37;;;6.30;;
9888;SDS011;4983;42.112;24.738;2022-10-16T08:59:51;6.77;;;5.63;;
9888;SDS011;4983;42.112;24.738;2022-10-16T09:02:24;7.93;;;5.70;;
9888;SDS011;4983;42.112;24.738;2022-10-16T09:04:58;9.53;;;5.70;;
9888;SDS011;4983;42.112;24.738;2022-10-16T09:07:27;8.70;;;5.57;;
9888;SDS011;4983;42.112;24.738;2022-10-16T09:10:02;6.93;;;5.53;;
9888;SDS011;4983;42.112;24.738;2022-10-16T09:12:31;8.50;;;5.33;;
9888;SDS011;4983;42.112;24.738;2022-10-16T09:15:02;19.83;;;6.47;;
9888;SDS011;4983;42.112;24.738;2022-10-16T09:17:34;10.20;;;5.20;;
9888;SDS011;4983;42.112;24.738;2022-10-16T09:20:12;7.65;;;5.40;;
9888;SDS011;4983;42.112;24.738;2022-10-16T09:22:42;8.90;;;4.93;;
9888;SDS011;4983;42.112;24.738;2022-10-16T09:25:11;6.73;;;5.40;;
9888;SDS011;4983;42.112;24.738;2022-10-16T09:27:39;5.90;;;5.30;;
9888;SDS011;4983;42.112;24.738;2022-10-16T09:30:10;22.77;;;6.20;;
9888;SDS011;4983;42.112;24.738;2022-10-16T09:32:37;7.83;;;5.23;;
9888;SDS011;4983;42.112;24.738;2022-10-16T09:35:09;14.07;;;5.87;;
9888;SDS011;4983;42.112;24.738;2022-10-16T09:37:37;6.97;;;5.53;;
9888;SDS011;4983;42.112;24.738;2022-10-16T09:40:04;7.47;;;5.23;;
9888;SDS011;4983;42.112;24.738;2022-10-16T09:42:34;21.20;;;6.10;;
9888;SDS011;4983;42.112;24.738;2022-10-16T09:45:02;7.47;;;4.63;;
9888;SDS011;4983;42.112;24.738;2022-10-16T09:47:30;10.33;;;5.80;;
9888;SDS011;4983;42.112;24.738;2022-10-16T09:49:59;11.27;;;5.10;;
9888;SDS011;4983;42.112;24.738;2022-10-16T09:52:27;8.37;;;4.90;;
9888;SDS011;4983;42.112;24.738;2022-10-16T09:54:55;7.00;;;4.63;;
9888;SDS011;4983;42.112;24.738;2022-10-16T09:57:23;7.50;;;4.47;;
9888;SDS011;4983;42.112;24.738;2022-10-16T09:59:52;6.00;;;4.50;;
9888;SDS011;4983;42.112;24.738;2022-10-16T10:02:19;7.23;;;4.50;;
9888;SDS011;4983;42.112;24.738;2022-10-16T10:04:48;5.93;;;4.50;;
9888;SDS011;4983;42.112;24.738;2022-10-16T10:07:21;5.33;;;4.77;;
9888;SDS011;4983;42.112;24.738;2022-10-16T10:09:50;6.67;;;4.50;;
9888;SDS011;4983;42.112;24.738;2022-10-16T10:12:17;6.80;;;4.50;;
9888;SDS011;4983;42.112;24.738;2022-10-16T10:14:45;6.37;;;4.30;;
9888;SDS011;4983;42.112;24.738;2022-10-16T10:17:16;7.77;;;4.57;;
9888;SDS011;4983;42.112;24.738;2022-10-16T10:19:47;7.07;;;4.97;;
9888;SDS011;4983;42.112;24.738;2022-10-16T10:22:19;7.67;;;4.87;;
9888;SDS011;4983;42.112;24.738;2022-10-16T10:24:54;7.43;;;4.57;;
9888;SDS011;4983;42.112;24.738;2022-10-16T10:27:21;27.70;;;7.60;;
9888;SDS011;4983;42.112;24.738;2022-10-16T10:29:55;7.57;;;4.60;;
9888;SDS011;4983;42.112;24.738;2022-10-16T10:32:27;7.73;;;4.40;;
9888;SDS011;4983;42.112;24.738;2022-10-16T10:35:03;6.10;;;4.50;;
9888;SDS011;4983;42.112;24.738;2022-10-16T10:37:38;5.30;;;4.10;;
9888;SDS011;4983;42.112;24.738;2022-10-16T10:40:11;6.43;;;3.80;;
9888;SDS011;4983;42.112;24.738;2022-10-16T10:42:43;24.30;;;5.37;;
9888;SDS011;4983;42.112;24.738;2022-10-16T10:45:18;8.63;;;4.40;;
9888;SDS011;4983;42.112;24.738;2022-10-16T10:47:52;7.53;;;3.90;;
9888;SDS011;4983;42.112;24.738;2022-10-16T10:50:21;5.00;;;4.10;;
9888;SDS011;4983;42.112;24.738;2022-10-16T10:52:52;9.10;;;4.50;;
9888;SDS011;4983;42.112;24.738;2022-10-16T10:55:24;6.13;;;4.10;;
9888;SDS011;4983;42.112;24.738;2022-10-16T10:57:56;5.20;;;4.07;;
9888;SDS011;4983;42.112;24.738;2022-10-16T11:00:27;7.20;;;4.60;;
9888;SDS011;4983;42.112;24.738;2022-10-16T11:02:58;6.07;;;4.50;;
9888;SDS011;4983;42.112;24.738;2022-10-16T11:05:33;5.10;;;4.30;;
9888;SDS011;4983;42.112;24.738;2022-10-16T11:08:04;7.70;;;4.50;;
9888;SDS011;4983;42.112;24.738;2022-10-16T11:10:38;5.47;;;4.10;;
9888;SDS011;4983;42.112;24.738;2022-10-16T11:13:09;4.97;;;4.03;;
9888;SDS011;4983;42.112;24.738;2022-10-16T11:15:37;6.70;;;3.97;;
9888;SDS011;4983;42.112;24.738;2022-10-16T11:18:07;7.43;;;3.90;;
9888;SDS011;4983;42.112;24.738;2022-10-16T11:20:39;5.50;;;4.07;;
9888;SDS011;4983;42.112;24.738;2022-10-16T11:23:11;5.73;;;3.90;;
9888;SDS011;4983;42.112;24.738;2022-10-16T11:25:39;6.73;;;4.20;;
9888;SDS011;4983;42.112;24.738;2022-10-16T11:28:08;6.83;;;4.67;;
9888;SDS011;4983;42.112;24.738;2022-10-16T11:30:39;9.53;;;5.10;;
9888;SDS011;4983;42.112;24.738;2022-10-16T11:33:17;9.17;;;4.30;;
9888;SDS011;4983;42.112;24.738;2022-10-16T11:35:46;6.33;;;3.90;;
9888;SDS011;4983;42.112;24.738;2022-10-16T11:38:15;7.67;;;4.33;;
9888;SDS011;4983;42.112;24.738;2022-10-16T11:40:45;6.43;;;3.93;;
9888;SDS011;4983;42.112;24.738;2022-10-16T11:43:15;7.47;;;3.87;;
9888;SDS011;4983;42.112;24.738;2022-10-16T11:45:44;6.90;;;3.80;;
9888;SDS011;4983;42.112;24.738;2022-10-16T11:48:18;5.00;;;3.83;;
9888;SDS011;4983;42.112;24.738;2022-10-16T11:50:48;5.70;;;4.37;;
9888;SDS011;4983;42.112;24.738;2022-10-16T11:53:20;5.77;;;4.13;;
9888;SDS011;4983;42.112;24.738;2022-10-16T11:55:48;6.03;;;4.10;;
9888;SDS011;4983;42.112;24.738;2022-10-16T11:58:16;7.67;;;5.00;;
9888;SDS011;4983;42.112;24.738;2022-10-16T12:00:51;10.83;;;4.83;;
9888;SDS011;4983;42.112;24.738;2022-10-16T12:03:22;17.53;;;5.03;;
9888;SDS011;4983;42.112;24.738;2022-10-16T12:06:00;14.30;;;4.73;;
9888;SDS011;4983;42.112;24.738;2022-10-16T12:08:33;4.60;;;4.10;;
9888;SDS011;4983;42.112;24.738;2022-10-16T12:11:07;5.90;;;5.30;;
9888;SDS011;4983;42.112;24.738;2022-10-16T12:13:34;5.67;;;5.10;;
9888;SDS011;4983;42.112;24.738;2022-10-16T12:16:19;5.30;;;4.53;;
9888;SDS011;4983;42.112;24.738;2022-10-16T12:18:48;4.77;;;4.23;;
9888;SDS011;4983;42.112;24.738;2022-10-16T12:21:16;5.53;;;4.33;;
9888;SDS011;4983;42.112;24.738;2022-10-16T12:23:47;9.77;;;7.97;;
9888;SDS011;4983;42.112;24.738;2022-10-16T12:26:15;5.67;;;4.00;;
9888;SDS011;4983;42.112;24.738;2022-10-16T12:28:50;6.37;;;4.23;;
9888;SDS011;4983;42.112;24.738;2022-10-16T12:31:17;6.30;;;4.13;;
9888;SDS011;4983;42.112;24.738;2022-10-16T12:33:52;6.43;;;4.20;;
9888;SDS011;4983;42.112;24.738;2022-10-16T12:36:26;5.03;;;4.00;;
9888;SDS011;4983;42.112;24.738;2022-10-16T12:38:54;6.70;;;4.10;;
9888;SDS011;4983;42.112;24.738;2022-10-16T12:41:26;6.37;;;4.30;;
9888;SDS011;4983;42.112;24.738;2022-10-16T12:43:53;5.70;;;4.00;;
9888;SDS011;4983;42.112;24.738;2022-10-16T12:46:38;6.77;;;4.20;;
9888;SDS011;4983;42.112;24.738;2022-10-16T12:49:17;5.33;;;4.10;;
9888;SDS011;4983;42.112;24.738;2022-10-16T12:51:47;15.60;;;5.57;;
9888;SDS011;4983;42.112;24.738;2022-10-16T12:54:14;4.53;;;4.13;;
9888;SDS011;4983;42.112;24.738;2022-10-16T12:56:45;6.03;;;4.30;;
9888;SDS011;4983;42.112;24.738;2022-10-16T12:59:20;6.60;;;4.30;;
9888;SDS011;4983;42.112;24.738;2022-10-16T13:01:54;5.60;;;4.40;;
9888;SDS011;4983;42.112;24.738;2022-10-16T13:04:29;7.83;;;4.20;;
9888;SDS011;4983;42.112;24.738;2022-10-16T13:07:00;7.03;;;4.60;;
9888;SDS011;4983;42.112;24.738;2022-10-16T13:09:31;12.67;;;4.37;;
9888;SDS011;4983;42.112;24.738;2022-10-16T13:12:10;4.70;;;3.97;;
9888;SDS011;4983;42.112;24.738;2022-10-16T13:14:47;21.20;;;6.40;;
9888;SDS011;4983;42.112;24.738;2022-10-16T13:17:18;8.23;;;4.77;;
9888;SDS011;4983;42.112;24.738;2022-10-16T13:19:51;40.47;;;7.07;;
9888;SDS011;4983;42.112;24.738;2022-10-16T13:22:21;5.57;;;4.50;;
9888;SDS011;4983;42.112;24.738;2022-10-16T13:24:55;8.13;;;4.27;;
9888;SDS011;4983;42.112;24.738;2022-10-16T13:27:27;8.23;;;4.60;;
9888;SDS011;4983;42.112;24.738;2022-10-16T13:30:00;8.27;;;4.43;;
9888;SDS011;4983;42.112;24.738;2022-10-16T13:32:28;4.57;;;4.17;;
9888;SDS011;4983;42.112;24.738;2022-10-16T13:34:57;5.10;;;4.20;;
9888;SDS011;4983;42.112;24.738;2022-10-16T13:37:26;6.23;;;4.17;;
9888;SDS011;4983;42.112;24.738;2022-10-16T13:40:01;8.90;;;4.60;;
9888;SDS011;4983;42.112;24.738;2022-10-16T13:42:28;20.10;;;5.87;;
9888;SDS011;4983;42.112;24.738;2022-10-16T13:44:55;7.50;;;4.13;;
9888;SDS011;4983;42.112;24.738;2022-10-16T13:47:24;6.43;;;4.47;;
9888;SDS011;4983;42.112;24.738;2022-10-16T13:50:00;11.43;;;4.83;;
9888;SDS011;4983;42.112;24.738;2022-10-16T13:52:27;6.90;;;4.37;;
9888;SDS011;4983;42.112;24.738;2022-10-16T13:54:55;5.67;;;4.30;;
9888;SDS011;4983;42.112;24.738;2022-10-16T13:57:22;6.63;;;4.03;;
9888;SDS011;4983;42.112;24.738;2022-10-16T13:59:49;15.23;;;5.27;;
9888;SDS011;4983;42.112;24.738;2022-10-16T14:02:18;10.40;;;5.10;;
9888;SDS011;4983;42.112;24.738;2022-10-16T14:04:46;7.90;;;4.20;;
9888;SDS011;4983;42.112;24.738;2022-10-16T14:07:17;5.80;;;4.13;;
9888;SDS011;4983;42.112;24.738;2022-10-16T14:09:47;12.07;;;4.90;;
9888;SDS011;4983;42.112;24.738;2022-10-16T14:12:14;7.00;;;4.30;;
9888;SDS011;4983;42.112;24.738;2022-10-16T14:14:42;8.30;;;4.63;;
9888;SDS011;4983;42.112;24.738;2022-10-16T14:17:13;7.83;;;5.10;;
9888;SDS011;4983;42.112;24.738;2022-10-16T14:19:40;10.77;;;4.73;;
9888;SDS011;4983;42.112;24.738;2022-10-16T14:22:19;15.87;;;4.73;;
9888;SDS011;4983;42.112;24.738;2022-10-16T14:24:48;22.03;;;20.00;;
9888;SDS011;4983;42.112;24.738;2022-10-16T14:27:28;12.47;;;11.17;;
9888;SDS011;4983;42.112;24.738;2022-10-16T14:30:05;12.97;;;8.20;;
9888;SDS011;4983;42.112;24.738;2022-10-16T14:32:34;13.03;;;11.37;;
9888;SDS011;4983;42.112;24.738;2022-10-16T14:35:03;7.80;;;7.00;;
9888;SDS011;4983;42.112;24.738;2022-10-16T14:37:32;8.73;;;4.90;;
9888;SDS011;4983;42.112;24.738;2022-10-16T14:39:59;10.17;;;7.40;;
9888;SDS011;4983;42.112;24.738;2022-10-16T14:42:27;12.07;;;5.90;;
9888;SDS011;4983;42.112;24.738;2022-10-16T14:44:56;16.30;;;6.13;;
9888;SDS011;4983;42.112;24.738;2022-10-16T14:47:25;13.87;;;4.80;;
9888;SDS011;4983;42.112;24.738;2022-10-16T14:49:52;8.50;;;4.47;;
9888;SDS011;4983;42.112;24.738;2022-10-16T14:52:21;8.17;;;4.60;;
9888;SDS011;4983;42.112;24.738;2022-10-16T14:54:49;6.97;;;4.37;;
9888;SDS011;4983;42.112;24.738;2022-10-16T14:57:16;6.60;;;4.70;;
9888;SDS011;4983;42.112;24.738;2022-10-16T14:59:44;15.43;;;5.43;;
9888;SDS011;4983;42.112;24.738;2022-10-16T15:02:16;16.23;;;4.50;;
9888;SDS011;4983;42.112;24.738;2022-10-16T15:04:43;16.30;;;4.37;;